Flight Track Log - Related Links

Times and Time Zones

All times are in EDT time to prevent confusion due to time zone crossing. See the EMD21 flight status page for this flight to view local times or setup timezone preferences in your user account.

Time Position Orientation Groundspeed Altitude Reporting Facility
EDT Latitude Longitude Course Direction KTS MPH feet Rate Location/Type
Wed 02:00:38 PM 34.8375 -95.8450 204° Southwest 231 266 5,300  Level Fort Worth Center
Wed 02:01:38 PM 34.7961 -95.8661 203° Southwest 200 230 6,900 1,550 Climbing Fort Worth Center
Wed 02:02:38 PM 34.7567 -95.8844 201° Southwest 175 201 8,400 1,350 Climbing Fort Worth Center
Wed 02:03:38 PM 34.7069 -95.9106 203° Southwest 175 201 9,600 1,200 Climbing Fort Worth Center
Wed 02:04:00 PM 34.5704 -95.9509 204° Southwest  Level Estimated
Wed 02:04:38 PM 34.6633 -95.9342 204° Southwest 175 201 10,800  Level Fort Worth Center
Wed 02:05:38 PM 34.6136 -95.9578 201° Southwest 175 201 12,000 650 Climbing Fort Worth Center
Wed 02:06:38 PM 34.5617 -95.9864 204° Southwest 189 217 12,100 50 Climbing Fort Worth Center
Wed 02:07:38 PM 34.4994 -96.0175 202° Southwest 218 251 12,100  Level Fort Worth Center
Wed 02:08:38 PM 34.4372 -96.0514 204° Southwest 240 276 12,100 -50 Level Fort Worth Center
Wed 02:09:38 PM 34.3728 -96.0850 203° Southwest 245 282 12,000  Descending Fort Worth Center
Wed 02:10:38 PM 34.3086 -96.1161 202° Southwest 255 293 12,100 50 Climbing Fort Worth Center
Wed 02:11:38 PM 34.2483 -96.1472 203° Southwest 255 293 12,100 -50 Level Fort Worth Center
Wed 02:12:38 PM 34.1839 -96.1808 203° Southwest 255 293 12,000  Descending Fort Worth Center
Wed 02:13:38 PM 34.1217 -96.2117 202° Southwest 255 293 12,100  Climbing Fort Worth Center
Wed 02:14:38 PM 34.0614 -96.2428 203° Southwest 255 293 12,000 -50 Descending Fort Worth Center
Wed 02:15:38 PM 33.9972 -96.2761 203° Southwest 255 293 12,000  Level Fort Worth Center
Wed 02:16:38 PM 33.9347 -96.3094 204° Southwest 255 293 12,000  Level Fort Worth Center
Wed 02:17:38 PM 33.8725 -96.3403 202° Southwest 255 293 12,000 -550 Level Fort Worth Center
Wed 02:18:38 PM 33.8017 -96.3736 201° Southwest 248 285 10,900 -950 Descending Fort Worth Center
Wed 02:19:38 PM 33.7353 -96.4069 203° Southwest 261 300 10,100 -450 Descending Fort Worth Center
Wed 02:20:38 PM 33.6686 -96.4400 202° Southwest 254 292 10,000 -450 Descending Fort Worth Center
Wed 02:21:38 PM 33.6083 -96.4706 203° Southwest 248 285 9,200 -1,200 Descending Fort Worth Center
Wed 02:22:38 PM 33.5378 -96.5064 203° Southwest 261 300 7,600 -1,600 Descending Fort Worth Center
Wed 02:23:38 PM 33.4733 -96.5369 202° Southwest 261 300 6,000 -1,100 Descending Fort Worth Center
Wed 02:24:38 PM 33.4131 -96.5697 204° Southwest 250 288 5,400 -900 Descending Fort Worth Center
Wed 02:25:38 PM 33.3506 -96.6003 202° Southwest 250 288 4,200 -700 Descending Fort Worth Center
Wed 02:26:38 PM 33.2944 -96.6406 211° Southwest 235 270 4,000 -350 Descending Fort Worth Center
Wed 02:27:38 PM 33.2403 -96.6783 210° Southwest 230 265 3,500 -500 Descending Fort Worth Center
Wed 02:28:38 PM 33.1883 -96.7158 211° Southwest 230 265 3,000 -250 Descending Fort Worth Center
Wed 02:29:38 PM 33.1447 -96.7411 206° Southwest 218 251 3,000  Level Fort Worth Center
Wed 02:30:08 PM 33.1167 -96.7500 195° South 192 221 3,000  Level Dallas / Fort Worth TRACON
Wed 02:31:14 PM 33.0667 -96.7833 209° Southwest 199 229 3,000  Level Dallas / Fort Worth TRACON
Wed 02:32:09 PM 33.0167 -96.8167 209° Southwest 201 231 3,000 -157 Level Dallas / Fort Worth TRACON
Wed 02:33:09 PM 32.9667 -96.8500 209° Southwest 203 234 2,700 -362 Descending Dallas / Fort Worth TRACON
Wed 02:34:05 PM 32.9333 -96.8833 220° Southwest 191 220 2,300 -706 Descending Dallas / Fort Worth TRACON
Wed 02:35:08 PM 32.8833 -96.8833 180° South 143 165 1,300 -952 Descending Dallas / Fort Worth TRACON
Wed 02:38:00 PM 32.8471 -96.8518 40° Northeast  Level Estimated

Login

Don't have an account? Register now (free) for customized features, flight alerts, and more!